DKH2703 ZSNJ-ZYTL
Flight info
| Callsign | DKH2703 |
|---|---|
| Flight time | N/A |
| Altitude | 35100 |
| Route | OF W178 RUXEL DCT GURIL DCT MABEB DCT XDX DCT URBAD W172 IGDEG W173 NIXEP |
| Aircraft | A321/M-SDE3FGHIRWY/LB1 |
Departure
| Time | 2026-04-23 14:45 |
|---|---|
| Airport | Nanjing Lukou International Airport (ZSNJ) |
Arrival
| Time | N/A |
|---|---|
| Airport | Dalian Zhoushuizi International Airport (ZYTL) |
| Time | Latitude | Longitude | Altitude | Speed | Heading |
|---|---|---|---|---|---|
| 2026-04-23 14:00 | 31.73600 | 118.86316 | 59 ft | 0 kts | 1° |
| 2026-04-23 14:30 | 31.73599 | 118.86316 | 58 ft | 1 kts | 1° |
| 2026-04-23 14:30 | 31.73584 | 118.86316 | 52 ft | 3 kts | 1° |
| 2026-04-23 14:30 | 31.73564 | 118.86316 | 55 ft | 3 kts | 359° |
| 2026-04-23 14:30 | 31.73544 | 118.86317 | 56 ft | 3 kts | 354° |
| 2026-04-23 14:31 | 31.73524 | 118.86320 | 54 ft | 3 kts | 349° |
| 2026-04-23 14:31 | 31.73504 | 118.86325 | 55 ft | 3 kts | 343° |
| 2026-04-23 14:31 | 31.73485 | 118.86333 | 54 ft | 3 kts | 335° |
| 2026-04-23 14:31 | 31.73468 | 118.86343 | 52 ft | 2 kts | 328° |
| 2026-04-23 14:32 | 31.73462 | 118.86347 | 55 ft | 0 kts | 327° |
| 2026-04-23 14:35 | 31.73463 | 118.86346 | 55 ft | 1 kts | 327° |
| 2026-04-23 14:35 | 31.73469 | 118.86342 | 52 ft | 2 kts | 327° |
| 2026-04-23 14:35 | 31.73482 | 118.86332 | 53 ft | 3 kts | 327° |
| 2026-04-23 14:35 | 31.73502 | 118.86317 | 51 ft | 4 kts | 327° |
| 2026-04-23 14:36 | 31.73517 | 118.86291 | 52 ft | 4 kts | 286° |
| 2026-04-23 14:36 | 31.73523 | 118.86252 | 56 ft | 6 kts | 279° |
| 2026-04-23 14:36 | 31.73523 | 118.86203 | 58 ft | 7 kts | 267° |
| 2026-04-23 14:36 | 31.73532 | 118.86147 | 54 ft | 7 kts | 300° |
| 2026-04-23 14:37 | 31.73573 | 118.86106 | 54 ft | 9 kts | 328° |
| 2026-04-23 14:37 | 31.73628 | 118.86066 | 53 ft | 10 kts | 328° |
| 2026-04-23 14:37 | 31.73693 | 118.86019 | 51 ft | 12 kts | 328° |
| 2026-04-23 14:37 | 31.73767 | 118.85965 | 57 ft | 13 kts | 328° |
| 2026-04-23 14:38 | 31.73849 | 118.85935 | 57 ft | 11 kts | 34° |
| 2026-04-23 14:38 | 31.73905 | 118.86008 | 52 ft | 13 kts | 58° |
| 2026-04-23 14:38 | 31.73955 | 118.86103 | 54 ft | 15 kts | 58° |
| 2026-04-23 14:38 | 31.74011 | 118.86210 | 50 ft | 16 kts | 58° |
| 2026-04-23 14:39 | 31.74075 | 118.86329 | 53 ft | 18 kts | 54° |
| 2026-04-23 14:39 | 31.74144 | 118.86456 | 55 ft | 19 kts | 58° |
| 2026-04-23 14:39 | 31.74218 | 118.86596 | 52 ft | 21 kts | 58° |
| 2026-04-23 14:39 | 31.74297 | 118.86748 | 55 ft | 23 kts | 58° |
| 2026-04-23 14:40 | 31.74386 | 118.86904 | 53 ft | 23 kts | 60° |
| 2026-04-23 14:40 | 31.74475 | 118.87072 | 53 ft | 25 kts | 58° |
| 2026-04-23 14:40 | 31.74571 | 118.87251 | 54 ft | 27 kts | 58° |
| 2026-04-23 14:40 | 31.74675 | 118.87444 | 52 ft | 29 kts | 58° |
| 2026-04-23 14:41 | 31.74784 | 118.87650 | 52 ft | 30 kts | 58° |
| 2026-04-23 14:41 | 31.74901 | 118.87867 | 52 ft | 32 kts | 57° |
| 2026-04-23 14:41 | 31.74939 | 118.87901 | 54 ft | 3 kts | 328° |
| 2026-04-23 14:41 | 31.74951 | 118.87882 | 55 ft | 2 kts | 308° |
| 2026-04-23 14:42 | 31.74966 | 118.87873 | 57 ft | 3 kts | 330° |
| 2026-04-23 14:42 | 31.74984 | 118.87861 | 55 ft | 3 kts | 330° |
| 2026-04-23 14:42 | 31.75004 | 118.87847 | 57 ft | 3 kts | 330° |
| 2026-04-23 14:42 | 31.75025 | 118.87833 | 56 ft | 4 kts | 330° |
| 2026-04-23 14:43 | 31.75047 | 118.87817 | 56 ft | 3 kts | 319° |
| 2026-04-23 14:43 | 31.75058 | 118.87787 | 55 ft | 4 kts | 280° |
| 2026-04-23 14:43 | 31.75049 | 118.87747 | 57 ft | 6 kts | 242° |
| 2026-04-23 14:43 | 31.75031 | 118.87714 | 57 ft | 0 kts | 238° |
| 2026-04-23 14:44 | 31.75010 | 118.87674 | 54 ft | 27 kts | 238° |
| 2026-04-23 14:44 | 31.74780 | 118.87239 | 51 ft | 96 kts | 238° |
| 2026-04-23 14:45 | 31.74323 | 118.86390 | 54 ft | 147 kts | 238° |
| 2026-04-23 14:45 | 31.73718 | 118.85242 | 167 ft | 175 kts | 238° |
| 2026-04-23 14:45 | 31.73131 | 118.84116 | 1059 ft | 151 kts | 238° |
| 2026-04-23 14:45 | 31.72707 | 118.82988 | 1624 ft | 154 kts | 255° |
| 2026-04-23 14:46 | 31.72409 | 118.81722 | 2080 ft | 171 kts | 253° |
| 2026-04-23 14:46 | 31.72065 | 118.80317 | 2316 ft | 190 kts | 252° |
| 2026-04-23 14:46 | 31.71668 | 118.78746 | 2551 ft | 211 kts | 252° |
| 2026-04-23 14:46 | 31.71307 | 118.76999 | 2746 ft | 229 kts | 266° |
| 2026-04-23 14:47 | 31.71635 | 118.75164 | 3076 ft | 237 kts | 298° |
| 2026-04-23 14:47 | 31.72806 | 118.73760 | 3360 ft | 249 kts | 334° |
| 2026-04-23 14:47 | 31.74360 | 118.72859 | 4128 ft | 249 kts | 336° |
| 2026-04-23 14:47 | 31.75902 | 118.71929 | 4795 ft | 251 kts | 335° |
| 2026-04-23 14:48 | 31.77462 | 118.70965 | 5458 ft | 255 kts | 335° |
| 2026-04-23 14:48 | 31.79021 | 118.69995 | 6059 ft | 259 kts | 335° |
| 2026-04-23 14:48 | 31.80627 | 118.69007 | 6647 ft | 263 kts | 338° |
| 2026-04-23 14:48 | 31.82369 | 118.68351 | 7190 ft | 265 kts | 352° |